createdAt,value
2017-08-03T00:02:15.138Z,81.10
2017-08-03T00:04:48.928Z,81.10
2017-08-03T00:07:23.750Z,80.60
2017-08-03T00:09:58.182Z,79.70
2017-08-03T00:12:32.621Z,79.70
2017-08-03T00:15:06.733Z,79.70
2017-08-03T00:17:40.663Z,79.90
2017-08-03T00:20:14.709Z,81.10
2017-08-03T00:22:48.521Z,80.60
2017-08-03T00:25:23.058Z,82.40
2017-08-03T00:27:56.883Z,81.50
2017-08-03T00:30:30.883Z,81.60
2017-08-03T00:33:04.786Z,81.60
2017-08-03T00:35:38.869Z,82.10
2017-08-03T00:38:13.222Z,82.50
2017-08-03T00:40:49.132Z,82.50
2017-08-03T00:43:27.129Z,82.30
2017-08-03T00:46:06.605Z,82.10
2017-08-03T00:51:29.634Z,81.90
2017-08-03T00:54:13.352Z,81.50
2017-08-03T00:56:48.204Z,81.50
2017-08-03T00:59:22.163Z,81.80
2017-08-03T01:01:58.060Z,82.40
2017-08-03T01:04:34.515Z,82.30
2017-08-03T01:07:11.956Z,82.00
2017-08-03T01:09:52.540Z,82.40
2017-08-03T01:12:28.189Z,83.30
2017-08-03T01:15:01.981Z,83.30
2017-08-03T01:17:35.820Z,83.30
2017-08-03T01:20:10.484Z,83.20
2017-08-03T01:22:45.078Z,84.20
2017-08-03T01:25:19.577Z,83.20
2017-08-03T01:27:53.384Z,82.60
2017-08-03T01:30:27.274Z,83.30
2017-08-03T01:33:01.156Z,83.50
2017-08-03T01:35:34.854Z,83.30
2017-08-03T01:38:09.398Z,83.30
2017-08-03T01:40:43.388Z,83.30
2017-08-03T01:46:28.969Z,84.30
2017-08-03T01:49:02.559Z,83.70
2017-08-03T01:51:36.512Z,84.50
2017-08-03T01:54:10.214Z,83.70
2017-08-03T01:56:44.210Z,83.40
2017-08-03T01:59:18.074Z,82.60
2017-08-03T02:01:52.111Z,83.20
2017-08-03T02:04:25.934Z,84.30
2017-08-03T02:09:59.118Z,82.00
2017-08-03T02:12:33.357Z,82.60
2017-08-03T02:15:07.269Z,83.20
2017-08-03T02:17:41.118Z,84.00
2017-08-03T02:20:15.864Z,84.10
2017-08-03T02:22:49.725Z,84.00
2017-08-03T02:25:24.349Z,82.90
2017-08-03T02:27:58.292Z,82.80
2017-08-03T02:30:32.013Z,83.40
2017-08-03T02:33:06.042Z,83.90
2017-08-03T02:35:39.877Z,83.40
2017-08-03T02:38:14.473Z,82.40
2017-08-03T02:40:48.504Z,82.20
2017-08-03T02:43:22.611Z,83.10
2017-08-03T02:45:56.570Z,83.30
2017-08-03T02:48:31.129Z,82.70
2017-08-03T02:51:04.866Z,82.70
2017-08-03T02:53:39.486Z,83.00
2017-08-03T02:56:14.141Z,82.90
2017-08-03T02:58:47.965Z,82.60
2017-08-03T03:01:21.845Z,82.80
2017-08-03T03:03:55.649Z,82.70
2017-08-03T03:06:29.637Z,83.00
2017-08-03T03:09:03.510Z,83.90
2017-08-03T03:11:39.018Z,84.00
2017-08-03T03:14:12.760Z,83.80
2017-08-03T03:16:47.629Z,84.20
2017-08-03T03:19:21.365Z,84.00
2017-08-03T03:21:55.295Z,84.30
2017-08-03T03:24:29.068Z,83.80
2017-08-03T03:27:03.732Z,83.40
2017-08-03T03:29:37.668Z,83.20
2017-08-03T03:32:11.652Z,83.40
2017-08-03T03:34:45.494Z,83.80
2017-08-03T03:37:20.010Z,83.90
2017-08-03T03:39:53.917Z,83.90
2017-08-03T03:42:28.862Z,83.70
2017-08-03T03:45:02.657Z,83.70
2017-08-03T03:47:36.442Z,83.10
2017-08-03T03:50:10.243Z,84.10
2017-08-03T03:52:44.933Z,83.50
2017-08-03T03:55:18.645Z,83.50
2017-08-03T03:57:52.546Z,84.40
2017-08-03T04:00:26.647Z,84.80
2017-08-03T04:03:00.559Z,84.80
2017-08-03T04:05:34.358Z,84.80
2017-08-03T04:08:08.278Z,84.50
2017-08-03T04:10:42.748Z,85.20
2017-08-03T04:13:16.685Z,84.20
2017-08-03T04:15:50.530Z,84.10
2017-08-03T04:18:24.424Z,84.10
2017-08-03T04:20:58.525Z,83.80
2017-08-03T04:23:32.508Z,84.00
2017-08-03T04:26:07.134Z,84.70
2017-08-03T04:28:40.932Z,84.20
2017-08-03T04:31:15.483Z,84.90
2017-08-03T04:33:49.393Z,84.90
2017-08-03T04:36:23.398Z,86.00
2017-08-03T04:38:57.247Z,85.80
2017-08-03T04:41:31.170Z,84.80
2017-08-03T04:44:05.138Z,84.90
2017-08-03T04:46:38.936Z,85.40
2017-08-03T04:49:12.889Z,85.20
2017-08-03T04:51:46.682Z,84.30
2017-08-03T04:54:20.829Z,85.00
2017-08-03T04:56:54.989Z,87.20
2017-08-03T04:59:31.790Z,86.80
2017-08-03T05:02:05.958Z,86.40
2017-08-03T05:04:40.697Z,86.60
2017-08-03T05:07:14.369Z,86.50
2017-08-03T05:09:48.205Z,86.50
2017-08-03T05:12:21.978Z,87.60
2017-08-03T05:14:59.023Z,85.60
2017-08-03T05:17:35.017Z,87.30
2017-08-03T05:20:10.966Z,87.70
2017-08-03T05:22:46.453Z,86.40
2017-08-03T05:25:20.485Z,86.40
2017-08-03T05:27:55.102Z,86.70
2017-08-03T05:30:28.901Z,86.60
2017-08-03T05:33:02.825Z,88.20
2017-08-03T05:35:36.804Z,88.10
2017-08-03T05:38:11.315Z,87.30
2017-08-03T05:40:45.729Z,87.60
2017-08-03T05:43:20.033Z,87.80
2017-08-03T05:45:53.980Z,85.30
2017-08-03T05:48:28.822Z,84.90
2017-08-03T05:51:02.834Z,84.80
2017-08-03T05:53:37.907Z,88.50
2017-08-03T05:56:15.340Z,89.20
2017-08-03T05:58:50.088Z,86.00
2017-08-03T06:01:24.046Z,85.60
2017-08-03T06:04:00.495Z,85.30
2017-08-03T06:06:35.219Z,86.80
2017-08-03T06:09:09.934Z,86.10
2017-08-03T06:11:44.615Z,86.00
2017-08-03T06:14:18.389Z,85.30
2017-08-03T06:16:52.307Z,83.10
2017-08-03T06:19:28.027Z,83.30
2017-08-03T06:22:03.523Z,83.80
2017-08-03T06:24:38.247Z,83.70
2017-08-03T06:27:15.480Z,83.80
2017-08-03T06:29:50.451Z,83.80
2017-08-03T06:32:25.423Z,83.80
2017-08-03T06:34:59.488Z,83.10
2017-08-03T06:37:33.526Z,83.00
2017-08-03T06:40:08.096Z,83.40
2017-08-03T06:42:43.050Z,83.80
2017-08-03T06:45:16.931Z,84.60
2017-08-03T06:47:53.986Z,83.80
2017-08-03T06:50:29.949Z,83.80
2017-08-03T06:53:05.414Z,83.20
2017-08-03T06:55:43.890Z,83.60
2017-08-03T06:58:18.595Z,83.60
2017-08-03T07:00:52.539Z,82.90
2017-08-03T07:03:26.334Z,83.60
2017-08-03T07:06:01.270Z,83.00
2017-08-03T07:08:37.954Z,80.10
2017-08-03T07:11:12.549Z,79.90
2017-08-03T07:13:47.798Z,78.10
2017-08-03T07:16:21.842Z,82.40
2017-08-03T07:18:55.863Z,82.30
2017-08-03T07:21:30.561Z,80.00
2017-08-03T07:24:04.617Z,82.20
2017-08-03T07:26:40.141Z,77.80
2017-08-03T07:29:14.062Z,77.70
2017-08-03T07:31:48.007Z,78.00
2017-08-03T07:34:23.143Z,75.90
2017-08-03T07:36:57.828Z,75.80
2017-08-03T07:39:32.380Z,73.90
2017-08-03T07:42:07.105Z,73.40
2017-08-03T07:44:45.471Z,68.80
2017-08-03T07:47:21.556Z,72.60
2017-08-03T07:49:57.799Z,71.60
2017-08-03T07:52:32.464Z,67.90
2017-08-03T07:55:06.365Z,66.70
2017-08-03T07:57:42.168Z,65.80
2017-08-03T08:00:16.199Z,65.80
2017-08-03T08:02:50.212Z,64.70
2017-08-03T08:05:25.599Z,67.50
2017-08-03T08:07:59.332Z,67.40
2017-08-03T08:10:33.893Z,64.60
2017-08-03T08:13:07.827Z,66.30
2017-08-03T08:15:42.241Z,62.30
2017-08-03T08:18:16.839Z,62.70
2017-08-03T08:20:50.861Z,62.60
2017-08-03T08:23:26.210Z,62.60
2017-08-03T08:26:00.067Z,60.90
2017-08-03T08:28:35.149Z,61.10
2017-08-03T08:31:09.234Z,59.70
2017-08-03T08:33:43.208Z,60.60
2017-08-03T08:36:17.300Z,59.80
2017-08-03T08:38:51.209Z,58.50
2017-08-03T08:41:25.945Z,58.80
2017-08-03T08:44:00.909Z,59.20
2017-08-03T08:46:35.704Z,56.60
2017-08-03T08:49:11.661Z,55.90
2017-08-03T08:51:47.655Z,57.20
2017-08-03T08:54:21.667Z,53.80
2017-08-03T08:56:55.587Z,54.10
2017-08-03T08:59:29.429Z,53.60
2017-08-03T09:02:13.786Z,50.90
2017-08-03T09:04:47.596Z,49.00
2017-08-03T09:07:21.295Z,50.70
2017-08-03T09:09:55.174Z,50.40
2017-08-03T09:12:28.773Z,49.50
2017-08-03T09:15:02.578Z,48.40
2017-08-03T09:17:36.202Z,49.80
2017-08-03T09:20:09.878Z,48.40
2017-08-03T09:22:44.435Z,48.90
2017-08-03T09:25:18.235Z,48.90
2017-08-03T09:27:51.979Z,48.10
2017-08-03T09:30:26.565Z,48.40
2017-08-03T09:33:00.378Z,47.80
2017-08-03T09:35:34.088Z,47.40
2017-08-03T09:38:07.856Z,49.70
2017-08-03T09:40:42.578Z,49.50
2017-08-03T09:43:16.240Z,50.40
2017-08-03T09:45:49.946Z,47.90
2017-08-03T09:48:23.665Z,50.10
2017-08-03T09:50:57.326Z,48.90
2017-08-03T09:53:31.810Z,48.10
2017-08-03T09:56:05.414Z,48.10
2017-08-03T09:58:38.994Z,47.50
2017-08-03T10:01:12.600Z,46.50
2017-08-03T10:03:46.276Z,46.70
2017-08-03T10:06:20.605Z,45.40
2017-08-03T10:08:54.937Z,46.40
2017-08-03T10:11:29.246Z,47.10
2017-08-03T10:14:03.763Z,47.10
2017-08-03T10:16:37.540Z,46.10
2017-08-03T10:19:12.011Z,46.30
2017-08-03T10:21:46.434Z,46.20
2017-08-03T10:24:20.035Z,45.90
2017-08-03T10:26:53.585Z,45.10
2017-08-03T10:29:27.312Z,44.50
2017-08-03T10:32:00.840Z,45.60
2017-08-03T10:34:35.120Z,45.40
2017-08-03T10:37:08.727Z,45.30
2017-08-03T10:39:42.373Z,45.10
2017-08-03T10:42:15.956Z,46.50
2017-08-03T10:44:49.509Z,46.10
2017-08-03T10:47:23.340Z,46.60
2017-08-03T10:49:56.960Z,47.10
2017-08-03T10:52:30.527Z,48.30
2017-08-03T10:55:04.270Z,47.80
2017-08-03T10:57:38.032Z,47.60
2017-08-03T11:00:11.582Z,48.50
2017-08-03T11:02:45.251Z,49.10
2017-08-03T11:05:18.849Z,49.20
2017-08-03T11:07:52.651Z,49.00
2017-08-03T11:10:27.123Z,47.60
2017-08-03T11:13:00.710Z,47.50
2017-08-03T11:15:34.297Z,47.70
2017-08-03T11:18:07.865Z,47.80
2017-08-03T11:20:41.473Z,48.90
2017-08-03T11:23:14.972Z,48.50
2017-08-03T11:25:48.574Z,48.90
2017-08-03T11:28:22.195Z,49.40
2017-08-03T11:30:55.770Z,48.40
2017-08-03T11:33:29.712Z,48.40
2017-08-03T11:36:04.198Z,47.80
2017-08-03T11:38:37.747Z,47.70
2017-08-03T11:41:11.342Z,48.00
2017-08-03T11:43:44.936Z,47.00
2017-08-03T11:46:18.600Z,47.60
2017-08-03T11:48:52.438Z,46.90
2017-08-03T11:51:26.233Z,48.30
2017-08-03T11:54:00.536Z,50.00
2017-08-03T11:56:34.358Z,50.60
2017-08-03T11:59:09.023Z,50.50
2017-08-03T12:01:42.837Z,50.50
2017-08-03T12:04:16.525Z,52.90
2017-08-03T12:06:50.242Z,49.50
2017-08-03T12:09:24.955Z,50.10
2017-08-03T12:11:58.587Z,50.70
2017-08-03T12:14:32.233Z,48.10
2017-08-03T12:17:06.425Z,46.80
2017-08-03T12:19:40.108Z,47.20
2017-08-03T12:22:13.965Z,46.60
2017-08-03T12:24:47.767Z,45.90
2017-08-03T12:27:22.262Z,47.40
2017-08-03T12:29:55.884Z,47.10
2017-08-03T12:32:29.549Z,45.90
2017-08-03T12:35:04.238Z,46.00
2017-08-03T12:37:39.288Z,45.40
2017-08-03T12:40:13.115Z,46.60
2017-08-03T12:42:46.919Z,47.60
2017-08-03T12:45:21.475Z,44.00
2017-08-03T12:47:55.406Z,43.90
2017-08-03T12:50:29.883Z,47.80
2017-08-03T12:53:03.565Z,47.70
2017-08-03T12:55:37.948Z,45.60
2017-08-03T12:58:11.811Z,45.50
2017-08-03T13:00:46.170Z,45.10
2017-08-03T13:03:20.814Z,44.10
2017-08-03T13:05:54.538Z,44.00
2017-08-03T13:08:28.871Z,44.90
2017-08-03T13:11:03.414Z,45.70
2017-08-03T13:13:37.143Z,45.60
2017-08-03T13:16:10.948Z,43.90
2017-08-03T13:18:44.803Z,45.40
2017-08-03T13:21:18.485Z,44.40
2017-08-03T13:23:52.851Z,40.60
2017-08-03T13:26:26.597Z,40.60
2017-08-03T13:29:00.420Z,42.10
2017-08-03T13:31:34.346Z,43.70
2017-08-03T13:34:08.228Z,43.70
2017-08-03T13:36:42.783Z,45.00
2017-08-03T13:39:16.583Z,45.00
2017-08-03T13:41:50.887Z,45.70
2017-08-03T13:44:24.529Z,43.10
2017-08-03T13:46:58.316Z,42.30
2017-08-03T13:49:31.922Z,42.40
2017-08-03T13:52:05.673Z,42.40
2017-08-03T13:54:39.357Z,42.00
2017-08-03T13:57:12.983Z,43.50
2017-08-03T13:59:46.794Z,43.30
2017-08-03T14:02:20.515Z,43.00
2017-08-03T14:04:54.362Z,45.20
2017-08-03T14:07:28.026Z,44.60
2017-08-03T14:10:01.829Z,43.50
2017-08-03T14:12:35.494Z,45.40
2017-08-03T14:15:09.272Z,44.10
2017-08-03T14:17:43.096Z,44.90
2017-08-03T14:20:16.860Z,45.20
2017-08-03T14:22:50.452Z,45.00
2017-08-03T14:25:24.672Z,44.80
2017-08-03T14:27:58.887Z,45.90
2017-08-03T14:30:32.677Z,44.10
2017-08-03T14:33:06.388Z,44.80
2017-08-03T14:35:41.039Z,44.00
2017-08-03T14:38:14.768Z,43.90
2017-08-03T14:40:48.510Z,44.90
2017-08-03T14:43:22.258Z,43.30
2017-08-03T14:45:56.035Z,44.00
2017-08-03T14:48:29.872Z,44.00
2017-08-03T14:51:04.475Z,44.90
2017-08-03T14:53:38.978Z,45.80
2017-08-03T14:56:12.641Z,45.80
2017-08-03T14:58:46.307Z,45.50
2017-08-03T15:01:19.976Z,46.60
2017-08-03T15:03:53.582Z,45.10
2017-08-03T15:06:27.393Z,44.70
2017-08-03T15:09:01.210Z,46.30
2017-08-03T15:11:34.975Z,45.90
2017-08-03T15:14:08.748Z,45.70
2017-08-03T15:16:42.537Z,45.30
2017-08-03T15:19:17.165Z,45.70
2017-08-03T15:21:50.947Z,45.70
2017-08-03T15:24:24.691Z,46.90
2017-08-03T15:26:58.855Z,46.70
2017-08-03T15:29:32.448Z,46.20
2017-08-03T15:32:06.209Z,46.30
2017-08-03T15:34:39.819Z,46.10
2017-08-03T15:37:13.646Z,46.00
2017-08-03T15:39:48.213Z,46.30
2017-08-03T15:42:21.988Z,46.30
2017-08-03T15:44:55.756Z,46.10
2017-08-03T15:47:29.630Z,46.70
2017-08-03T15:50:03.408Z,47.40
2017-08-03T15:52:37.616Z,47.30
2017-08-03T15:55:12.219Z,46.50
2017-08-03T15:57:46.076Z,46.50
2017-08-03T16:00:20.014Z,47.30
2017-08-03T16:02:55.330Z,47.50
2017-08-03T16:05:38.142Z,47.40
2017-08-03T16:08:18.365Z,46.90
2017-08-03T16:10:52.215Z,46.90
2017-08-03T16:13:25.971Z,47.00
2017-08-03T16:16:00.099Z,47.50
2017-08-03T16:18:34.781Z,47.80
2017-08-03T16:21:09.142Z,47.70
2017-08-03T16:23:43.943Z,47.80
2017-08-03T16:26:17.962Z,47.80
2017-08-03T16:28:51.931Z,47.60
2017-08-03T16:31:26.957Z,49.30
2017-08-03T16:34:00.778Z,49.80
2017-08-03T16:36:35.510Z,49.60
2017-08-03T16:39:09.238Z,49.60
2017-08-03T16:41:44.317Z,49.80
2017-08-03T16:44:18.259Z,49.80
2017-08-03T16:46:52.350Z,50.00
2017-08-03T16:49:26.314Z,50.00
2017-08-03T16:52:00.296Z,49.20
2017-08-03T16:54:34.345Z,49.00
2017-08-03T16:57:08.302Z,49.30
2017-08-03T16:59:42.009Z,48.40
2017-08-03T17:02:15.985Z,49.40
2017-08-03T17:04:57.813Z,48.10
2017-08-03T17:07:31.729Z,48.60
2017-08-03T17:10:05.587Z,48.20
2017-08-03T17:12:39.280Z,49.00
2017-08-03T17:15:13.187Z,49.10
2017-08-03T17:17:47.170Z,49.00
2017-08-03T17:20:21.131Z,49.40
2017-08-03T17:25:52.338Z,50.00
2017-08-03T17:28:26.093Z,50.70
2017-08-03T17:30:59.828Z,51.20
2017-08-03T17:33:33.875Z,52.10
2017-08-03T17:36:16.337Z,53.60
2017-08-03T17:38:50.192Z,53.60
2017-08-03T17:41:24.028Z,54.00
2017-08-03T17:43:58.747Z,55.10
2017-08-03T17:46:33.246Z,55.10
2017-08-03T17:51:53.542Z,55.20
2017-08-03T17:54:30.597Z,56.10
2017-08-03T17:57:07.988Z,56.80
2017-08-03T17:59:43.707Z,56.40
2017-08-03T18:02:17.689Z,56.10
2017-08-03T18:04:52.257Z,56.70
2017-08-03T18:07:26.325Z,56.70
2017-08-03T18:10:02.057Z,57.00
2017-08-03T18:12:36.216Z,57.70
2017-08-03T18:15:10.189Z,60.10
2017-08-03T18:17:43.928Z,61.30
2017-08-03T18:20:17.883Z,62.20
2017-08-03T18:22:52.646Z,61.60
2017-08-03T18:25:27.359Z,60.60
2017-08-03T18:28:01.416Z,60.60
2017-08-03T18:30:35.476Z,61.10
2017-08-03T18:33:10.312Z,61.80
2017-08-03T18:35:44.755Z,62.80
2017-08-03T18:38:18.690Z,63.30
2017-08-03T18:40:52.712Z,65.20
2017-08-03T18:43:27.567Z,66.20
2017-08-03T18:46:02.480Z,66.20
2017-08-03T18:48:36.395Z,67.90
2017-08-03T18:51:11.414Z,68.60
2017-08-03T18:53:46.656Z,67.70
2017-08-03T18:56:20.578Z,67.60
2017-08-03T18:58:54.594Z,67.10
2017-08-03T19:01:30.175Z,67.30
2017-08-03T19:04:09.309Z,67.80
2017-08-03T19:06:43.224Z,67.50
2017-08-03T19:09:17.310Z,67.90
2017-08-03T19:11:51.337Z,68.90
2017-08-03T19:14:25.199Z,68.50
2017-08-03T19:17:02.778Z,68.70
2017-08-03T19:22:36.557Z,69.30
2017-08-03T19:25:14.682Z,68.90
2017-08-03T19:27:48.627Z,68.70
2017-08-03T19:30:26.367Z,68.60
2017-08-03T19:33:02.517Z,68.80
2017-08-03T19:35:36.612Z,68.80
2017-08-03T19:38:12.105Z,70.10
2017-08-03T19:40:49.883Z,70.50
2017-08-03T19:43:27.385Z,71.40
2017-08-03T19:46:01.384Z,70.80
2017-08-03T19:48:35.306Z,69.10
2017-08-03T19:51:10.312Z,69.30
2017-08-03T19:56:41.027Z,70.60
2017-08-03T19:59:15.982Z,70.50
2017-08-03T20:01:52.019Z,71.60
2017-08-03T20:04:26.617Z,71.20
2017-08-03T20:07:05.480Z,71.00
2017-08-03T20:09:51.158Z,71.80
2017-08-03T20:12:25.553Z,72.00
2017-08-03T20:15:04.004Z,71.20
2017-08-03T20:17:45.136Z,70.80
2017-08-03T20:20:19.103Z,70.80
2017-08-03T20:22:53.121Z,71.10
2017-08-03T20:25:29.106Z,71.30
2017-08-03T20:28:13.410Z,72.00
2017-08-03T20:30:55.482Z,72.00
2017-08-03T20:36:13.271Z,71.60
2017-08-03T20:38:47.233Z,71.60
2017-08-03T20:41:22.068Z,71.40
2017-08-03T20:43:56.128Z,71.40
2017-08-03T20:46:30.886Z,72.20
2017-08-03T20:49:04.895Z,72.10
2017-08-03T20:51:38.939Z,71.10
2017-08-03T20:54:12.980Z,71.40
2017-08-03T20:56:47.030Z,71.80
2017-08-03T20:59:20.904Z,72.20
2017-08-03T21:01:54.675Z,72.80
2017-08-03T21:04:29.157Z,74.80
2017-08-03T21:07:02.796Z,74.80
2017-08-03T21:09:37.438Z,74.20
2017-08-03T21:12:12.385Z,74.30
2017-08-03T21:14:46.167Z,74.00
2017-08-03T21:17:19.952Z,74.30
2017-08-03T21:19:53.929Z,74.70
2017-08-03T21:22:49.707Z,75.60
2017-08-03T21:25:24.605Z,75.90
2017-08-03T21:27:58.893Z,77.10
2017-08-03T21:30:32.805Z,77.20
2017-08-03T21:33:07.969Z,76.10
2017-08-03T21:35:42.471Z,75.70
2017-08-03T21:38:16.259Z,76.00
2017-08-03T21:40:50.633Z,76.20
2017-08-03T21:43:25.404Z,76.40
2017-08-03T21:45:59.082Z,75.50
2017-08-03T21:48:33.899Z,75.30
2017-08-03T21:51:08.507Z,75.50
2017-08-03T21:53:43.271Z,75.90
2017-08-03T21:56:17.340Z,76.50
2017-08-03T21:58:51.952Z,76.80
2017-08-03T22:01:25.986Z,76.90
2017-08-03T22:04:00.587Z,76.80
2017-08-03T22:06:35.835Z,78.50
2017-08-03T22:09:09.954Z,78.50
2017-08-03T22:11:44.401Z,78.00
2017-08-03T22:14:18.397Z,77.40
2017-08-03T22:16:53.034Z,76.70
2017-08-03T22:19:27.914Z,76.70
2017-08-03T22:22:02.809Z,76.60
2017-08-03T22:24:36.834Z,76.40
2017-08-03T22:27:10.679Z,77.10
2017-08-03T22:29:44.550Z,78.20
2017-08-03T22:32:18.315Z,77.80
2017-08-03T22:34:52.321Z,77.20
2017-08-03T22:37:26.306Z,76.90
2017-08-03T22:40:00.437Z,77.70
2017-08-03T22:42:35.837Z,78.00
2017-08-03T22:45:12.685Z,77.60
2017-08-03T22:47:46.700Z,77.30
2017-08-03T22:50:20.562Z,78.00
2017-08-03T22:52:54.551Z,77.50
2017-08-03T22:55:28.308Z,77.50
2017-08-03T22:58:03.581Z,77.50
2017-08-03T23:00:37.632Z,77.60
2017-08-03T23:03:12.039Z,77.90
2017-08-03T23:05:46.945Z,78.00
2017-08-03T23:08:21.593Z,78.20
2017-08-03T23:10:56.288Z,78.60
2017-08-03T23:13:30.382Z,78.70
2017-08-03T23:16:04.518Z,79.40
2017-08-03T23:18:38.622Z,79.10
2017-08-03T23:21:13.248Z,78.40
2017-08-03T23:23:47.194Z,78.30
2017-08-03T23:26:21.393Z,78.10
2017-08-03T23:28:55.202Z,78.40
2017-08-03T23:31:29.414Z,78.80
2017-08-03T23:34:03.384Z,79.30
2017-08-03T23:36:37.399Z,79.60
2017-08-03T23:39:12.016Z,79.80
2017-08-03T23:41:49.066Z,79.80
2017-08-03T23:44:23.090Z,79.80
2017-08-03T23:46:56.920Z,79.10
2017-08-03T23:49:32.432Z,79.00
2017-08-03T23:52:06.277Z,79.40
2017-08-03T23:54:40.205Z,80.00
2017-08-03T23:57:14.864Z,79.50
2017-08-03T23:59:48.862Z,79.40
